Portada
METAR-TAF:

METAR-TAF

Aeroports :

Aeroport Internacional del Caire

El Caire, Egipte

latitud: 30-08N, longitud: 031-24E, altitud: 64 m

Observació

L'informe es va fer fa 13 minuts, a les 03:30 UTC
Vent 3 kt del Est/Nord-Est
Temperatura 14°C
Humitat 58%
Pressió 1016 hPa
Visibilitat 10 km o més
sense núvols per sota de 1500 mi sense presència de cumulonimbus.

METAR: HECA 210330Z 07003KT CAVOK 14/06 Q1016 NOSIG

Hora: 05:43 (03:43 UTC)

Pronòstic

L'informe es va fer fa 4 hores i 43 minuts, a les 23:00 UTC
Pronòstic vàlid del 21 a les 00 UTC al 22 a les 06 UTC
Vent 9 kt del Nord-Est
Visibilitat 10 km o més
sense núvols per sota de 1500 mi sense presència de cumulonimbus.
Temporalment
l' 21 a les 02 UTC al 21 a les 06 UTC
Vent 3 kt amb direcció variable
Visibilitat: 4000 m
calitja

TAF: HECA 202300Z 2100/2206 04009KT CAVOK TEMPO 2102/2106 VRB03KT 4000 HZ NSC

Observacions i pronòstics meteorològics de més de 4000 aeroports (METAR i TAF).

Les estacions disponibles són els punts grocs i vermells al mapa.

Posi el ratolí al punt desitjat per veure el nom de l'estació.

Feu clic per veure les observacions i els pronòstics meteorològics.

Per canviar el mapa: feu clic els botons verds amb una creu de color negre per apropar; al botó verd amb un guió per allunyar la imatge; o en les fletxes verdes per a mapes adjacents.


METAR-TAF: